Time;durP1;ratioP1;P1;durP2;ratioP2;P2;SDS_P1;SDS_P2;PMS_P1;PMS_P2;Temp;Humidity;BMP_temperature;BMP_pressure;BME280_temperature;BME280_humidity;BME280_pressure;Samples;Min_cycle;Max_cycle;Signal;HPM_P1;HPM_P2
2021/12/28 00:00:31;;;;;;;43.90;7.88;;;;;;;6.94;86.34;97859.63;5059314;28;20166;-55
2021/12/28 00:02:58;;;;;;;44.45;9.48;;;;;;;6.96;86.20;97851.91;5058781;28;20052;-54
2021/12/28 00:05:25;;;;;;;35.53;8.20;;;;;;;6.96;85.96;97849.31;5076065;28;20028;-55
2021/12/28 00:07:51;;;;;;;38.92;9.00;;;;;;;6.97;86.09;97851.88;5076077;28;20079;-55
2021/12/28 00:10:22;;;;;;;41.47;8.55;;;;;;;6.97;86.26;97839.00;5076759;28;20064;-55
2021/12/28 00:12:56;;;;;;;33.70;7.78;;;;;;;6.97;86.21;97841.56;5075948;28;20043;-55
2021/12/28 00:18:07;;;;;;;38.95;8.60;;;;;;;6.97;86.37;97831.28;5076231;28;20174;-55
2021/12/28 00:20:52;;;;;;;40.38;9.18;;;;;;;6.98;85.86;97819.28;5077095;28;20418;-55
2021/12/28 00:23:32;;;;;;;35.33;8.10;;;;;;;6.98;86.31;97830.41;5075730;28;20484;-55
2021/12/28 00:26:03;;;;;;;38.65;8.18;;;;;;;6.99;86.11;97818.41;5077189;28;20055;-55
2021/12/28 00:28:43;;;;;;;39.33;8.85;;;;;;;6.99;86.27;97821.81;5075912;28;20041;-55
2021/12/28 00:31:18;;;;;;;39.45;8.18;;;;;;;7.00;86.02;97826.13;5058919;28;20036;-55
2021/12/28 00:33:52;;;;;;;29.38;7.93;;;;;;;7.03;86.05;97820.09;5059090;28;20040;-54
2021/12/28 00:36:23;;;;;;;32.65;8.07;;;;;;;7.04;86.07;97826.09;5076199;28;20093;-55
2021/12/28 00:38:56;;;;;;;43.20;9.27;;;;;;;7.03;86.24;97814.94;5076351;28;20032;-55
2021/12/28 00:41:28;;;;;;;31.67;8.25;;;;;;;7.04;86.26;97820.94;5076517;28;20047;-55
2021/12/28 00:43:53;;;;;;;46.78;7.53;;;;;;;7.04;86.25;97803.75;5075570;28;20043;-55
2021/12/28 00:46:24;;;;;;;31.10;7.50;;;;;;;7.06;85.93;97796.88;5076306;28;20036;-55
2021/12/28 00:48:58;;;;;;;30.13;8.23;;;;;;;7.07;85.76;97788.28;5076340;28;20487;-55
2021/12/28 00:51:26;;;;;;;33.58;6.78;;;;;;;7.08;86.38;97800.31;5058778;28;20036;-55
2021/12/28 00:54:03;;;;;;;29.27;7.25;;;;;;;7.08;86.08;97791.75;5076164;28;20028;-54
2021/12/28 00:56:36;;;;;;;36.40;8.77;;;;;;;7.08;86.16;97802.06;5076423;28;20062;-55
2021/12/28 00:59:05;;;;;;;35.92;6.85;;;;;;;7.08;85.98;97800.31;5076621;28;20082;-56
2021/12/28 01:01:33;;;;;;;26.40;7.05;;;;;;;7.09;86.23;97799.44;5075630;28;20499;-55
2021/12/28 01:04:04;;;;;;;31.55;7.13;;;;;;;7.08;86.38;97792.59;5058071;28;20044;-55
2021/12/28 01:06:38;;;;;;;23.30;6.85;;;;;;;7.10;86.34;97793.44;5058425;28;20130;-55
2021/12/28 01:09:09;;;;;;;;;;;;;;;7.10;85.99;97785.72;5075885;28;20119;-55
2021/12/28 01:11:37;;;;;;;32.03;6.85;;;;;;;7.10;86.32;97782.25;5074905;28;19929;-56
2021/12/28 01:14:06;;;;;;;27.75;6.13;;;;;;;7.12;86.36;97788.25;5075703;28;20473;-55
2021/12/28 01:16:31;;;;;;;28.98;6.90;;;;;;;7.11;86.35;97790.00;5075600;28;20033;-55
2021/12/28 01:19:08;;;;;;;22.38;5.63;;;;;;;7.12;86.26;97788.25;5074235;28;20043;-55
2021/12/28 01:21:36;;;;;;;15.55;6.20;;;;;;;7.13;86.28;97784.81;5057948;28;20040;-55
2021/12/28 01:24:12;;;;;;;26.67;5.07;;;;;;;7.13;86.43;97775.41;5074678;28;20040;-55
2021/12/28 01:26:46;;;;;;;24.05;6.57;;;;;;;7.13;86.11;97770.25;5058451;28;20041;-55
2021/12/28 01:29:14;;;;;;;32.22;6.60;;;;;;;7.12;86.20;97773.69;5075827;28;20032;-55
2021/12/28 01:31:40;;;;;;;26.00;6.25;;;;;;;7.13;86.41;97771.94;5075695;28;20040;-54
2021/12/28 01:34:11;;;;;;;26.88;5.70;;;;;;;7.14;86.25;97760.78;5074299;28;20395;-55
2021/12/28 01:36:46;;;;;;;29.57;6.47;;;;;;;7.13;86.40;97770.25;5074536;28;20037;-55
2021/12/28 01:39:15;;;;;;;29.60;6.65;;;;;;;7.13;86.15;97771.94;5057975;28;20028;-54
2021/12/28 01:41:40;;;;;;;31.38;6.90;;;;;;;7.13;86.46;97772.81;5075316;28;20035;-55
2021/12/28 01:44:22;;;;;;;26.05;6.00;;;;;;;7.13;86.07;97779.69;5074484;28;20051;-55
2021/12/28 01:46:57;;;;;;;24.17;6.85;;;;;;;7.14;86.17;97779.69;5074091;28;20056;-55
2021/12/28 01:49:28;;;;;;;23.13;6.18;;;;;;;7.13;85.94;97780.53;5075147;28;20036;-54
2021/12/28 01:51:59;;;;;;;30.75;6.15;;;;;;;7.12;86.24;97773.69;5057774;28;20091;-55
2021/12/28 01:54:32;;;;;;;26.35;5.25;;;;;;;7.13;86.21;97785.69;5057476;28;20036;-55
2021/12/28 01:57:03;;;;;;;32.83;7.78;;;;;;;7.13;86.02;97779.69;5057607;28;20118;-55
2021/12/28 01:59:37;;;;;;;27.20;6.70;;;;;;;7.15;86.13;97780.53;5074638;28;20040;-55
2021/12/28 02:02:05;;;;;;;26.42;6.38;;;;;;;7.15;86.12;97777.94;5056651;28;20043;-55
2021/12/28 02:04:31;;;;;;;23.80;6.45;;;;;;;7.16;86.13;97774.50;5074729;28;20556;-55
2021/12/28 02:07:02;;;;;;;26.08;6.32;;;;;;;7.16;86.13;97772.78;5074825;28;20037;-54
2021/12/28 02:09:34;;;;;;;28.08;6.03;;;;;;;7.16;86.12;97777.94;5057373;28;20059;-55
2021/12/28 02:12:06;;;;;;;24.73;6.22;;;;;;;7.15;86.28;97775.38;5074860;28;20079;-54
2021/12/28 02:14:43;;;;;;;22.05;5.40;;;;;;;7.16;86.49;97764.22;5074802;28;20404;-55
2021/12/28 02:17:13;;;;;;;29.83;6.18;;;;;;;7.17;86.26;97760.75;5073941;28;20090;-54
2021/12/28 02:19:45;;;;;;;22.88;5.28;;;;;;;7.19;86.29;97765.91;5055558;28;20135;-55
2021/12/28 02:22:15;;;;;;;20.52;6.05;;;;;;;7.18;86.45;97751.31;5056840;28;20072;-55
2021/12/28 02:24:52;;;;;;;14.88;5.55;;;;;;;7.17;86.28;97737.56;5056474;28;20044;-55
2021/12/28 02:27:18;;;;;;;25.13;5.30;;;;;;;7.16;86.24;97733.28;5056429;28;20028;-55
2021/12/28 02:29:51;;;;;;;18.73;4.45;;;;;;;7.15;86.17;97737.59;5074530;28;20468;-55
2021/12/28 02:32:26;;;;;;;20.70;5.85;;;;;;;7.16;86.43;97738.44;5056955;28;20032;-55
2021/12/28 02:34:59;;;;;;;18.75;6.15;;;;;;;7.15;86.23;97739.31;5056587;28;20043;-54
2021/12/28 02:37:33;;;;;;;20.25;5.68;;;;;;;7.15;86.42;97731.56;5074376;28;20040;-55
2021/12/28 02:40:08;;;;;;;14.55;4.15;;;;;;;7.14;86.38;97725.59;5072786;28;20502;-55
2021/12/28 02:42:40;;;;;;;16.58;4.90;;;;;;;7.14;86.51;97725.59;5073805;28;20044;-55
2021/12/28 02:45:12;;;;;;;14.52;4.85;;;;;;;7.16;86.08;97722.97;5056460;28;20513;-55
2021/12/28 02:47:47;;;;;;;18.73;4.97;;;;;;;7.17;86.34;97722.13;5073120;28;20044;-55
2021/12/28 02:50:17;;;;;;;12.90;4.32;;;;;;;7.17;86.39;97727.28;5074155;28;20055;-55
2021/12/28 02:52:52;;;;;;;13.75;4.30;;;;;;;7.16;86.13;97716.09;5056686;28;20510;-55
2021/12/28 02:55:24;;;;;;;13.57;4.25;;;;;;;7.18;86.21;97725.53;5072973;28;20052;-55
2021/12/28 02:58:08;;;;;;;11.18;3.70;;;;;;;7.18;86.41;97717.81;5074133;28;20032;-55
2021/12/28 03:00:39;;;;;;;17.25;4.30;;;;;;;7.18;86.41;97712.66;5072489;28;20036;-55
2021/12/28 03:03:17;;;;;;;14.60;3.70;;;;;;;7.19;86.61;97710.09;5073330;28;20098;-55
2021/12/28 03:05:46;;;;;;;16.48;4.45;;;;;;;7.19;86.27;97710.09;5074375;28;20086;-55
2021/12/28 03:08:14;;;;;;;11.13;3.63;;;;;;;7.20;86.27;97708.34;5074111;28;20060;-54
2021/12/28 03:10:45;;;;;;;12.77;3.55;;;;;;;7.20;86.59;97698.91;5055884;28;20041;-55
2021/12/28 03:13:22;;;;;;;10.25;3.70;;;;;;;7.20;86.38;97698.03;5072677;28;20446;-55
2021/12/28 03:15:50;;;;;;;12.93;3.58;;;;;;;7.20;86.64;97698.03;5073613;28;20025;-55
2021/12/28 03:18:19;;;;;;;13.38;3.10;;;;;;;7.21;86.39;97710.94;5072378;28;20032;-54
2021/12/28 03:20:45;;;;;;;14.15;3.80;;;;;;;7.21;86.18;97704.91;5073510;28;20059;-55
2021/12/28 03:23:19;;;;;;;17.45;3.92;;;;;;;7.21;86.38;97703.22;5073164;28;20539;-55
2021/12/28 03:25:47;;;;;;;12.15;3.15;;;;;;;7.21;86.33;97699.75;5074088;28;20028;-55
2021/12/28 03:28:22;;;;;;;12.25;3.25;;;;;;;7.20;86.57;97698.91;5072270;28;20040;-55
2021/12/28 03:30:49;;;;;;;10.63;3.80;;;;;;;7.23;86.43;97688.59;5055575;28;20041;-54
2021/12/28 03:33:23;;;;;;;10.38;3.47;;;;;;;7.22;86.29;97686.88;5073633;28;20032;-55
2021/12/28 03:35:49;;;;;;;13.98;3.78;;;;;;;7.22;86.15;97678.28;5073405;28;20043;-54
2021/12/28 03:38:20;;;;;;;9.27;3.10;;;;;;;7.21;86.58;97680.03;5073267;28;20036;-54
2021/12/28 03:40:49;;;;;;;9.32;4.15;;;;;;;7.22;86.27;97670.56;5072574;28;20418;-55
2021/12/28 03:43:20;;;;;;;9.93;4.28;;;;;;;7.21;85.99;97664.56;5055672;28;20407;-55
2021/12/28 03:45:51;;;;;;;7.93;3.67;;;;;;;7.22;86.39;97660.25;5055653;28;20045;-55
2021/12/28 03:48:20;;;;;;;9.07;3.53;;;;;;;7.22;86.13;97660.25;5055394;28;20480;-55
2021/12/28 03:50:49;;;;;;;11.43;2.75;;;;;;;7.21;86.21;97654.25;5055234;28;20040;-55
2021/12/28 03:53:14;;;;;;;16.38;3.08;;;;;;;7.20;86.35;97651.69;5073009;28;20046;-54
2021/12/28 03:55:45;;;;;;;10.93;3.17;;;;;;;7.21;86.46;97655.97;5073582;28;20123;-55
2021/12/28 03:58:19;;;;;;;9.25;3.78;;;;;;;7.21;86.61;97654.25;5073181;28;20029;-55
2021/12/28 04:00:50;;;;;;;8.73;3.17;;;;;;;7.22;86.41;97649.94;5055386;28;20040;-55
2021/12/28 04:03:21;;;;;;;;;;;;;;;7.20;86.29;97655.13;5072012;28;20507;-54
2021/12/28 04:05:52;;;;;;;11.20;3.70;;;;;;;7.19;86.35;97655.13;5055852;28;19917;-55
2021/12/28 04:08:29;;;;;;;10.85;2.83;;;;;;;7.18;86.33;97649.13;5055234;28;20079;-55
2021/12/28 04:11:13;;;;;;;12.05;3.08;;;;;;;7.19;86.36;97649.97;5072254;28;20082;-55
2021/12/28 04:13:41;;;;;;;11.60;3.97;;;;;;;7.20;86.27;97651.69;5073162;28;20056;-55
2021/12/28 04:16:10;;;;;;;10.48;3.08;;;;;;;7.20;86.33;97638.78;5073291;28;20040;-54
2021/12/28 04:18:44;;;;;;;13.50;3.75;;;;;;;7.20;86.63;97649.97;5055184;28;20044;-54
2021/12/28 04:21:15;;;;;;;9.77;3.13;;;;;;;7.21;86.20;97648.22;5073128;28;20379;-55
2021/12/28 04:23:46;;;;;;;12.20;4.00;;;;;;;7.21;86.21;97638.78;5055010;28;20048;-54
2021/12/28 04:26:11;;;;;;;13.85;3.75;;;;;;;7.22;86.64;97640.50;5071908;28;20139;-54
2021/12/28 04:28:39;;;;;;;6.95;3.03;;;;;;;7.22;86.27;97645.66;5072803;28;20514;-55
2021/12/28 04:31:11;;;;;;;8.80;3.00;;;;;;;7.23;86.63;97639.66;5055261;28;20036;-55
2021/12/28 04:33:45;;;;;;;10.02;2.88;;;;;;;7.22;86.28;97632.78;5073041;28;20037;-55
2021/12/28 04:36:14;;;;;;;5.70;2.83;;;;;;;7.22;86.46;97630.22;5073083;28;20033;-55
2021/12/28 04:38:46;;;;;;;8.15;2.80;;;;;;;7.22;86.67;97637.06;5054725;28;20047;-55
2021/12/28 04:41:18;;;;;;;6.50;2.90;;;;;;;7.22;86.51;97634.47;5072071;28;20040;-55
2021/12/28 04:43:47;;;;;;;6.47;3.33;;;;;;;7.22;86.79;97640.50;5075213;28;20119;-54
2021/12/28 04:46:18;;;;;;;8.65;2.97;;;;;;;7.23;86.51;97647.38;5076820;28;20033;-55
2021/12/28 04:48:45;;;;;;;7.32;2.70;;;;;;;7.23;86.42;97642.22;5076724;28;20105;-55
2021/12/28 04:51:18;;;;;;;7.82;2.97;;;;;;;7.23;86.16;97644.78;5058510;28;20050;-55
2021/12/28 04:53:53;;;;;;;10.90;2.80;;;;;;;7.23;86.42;97646.50;5059171;28;20068;-55
2021/12/28 04:56:19;;;;;;;8.48;3.03;;;;;;;7.24;86.52;97654.19;5058858;28;20036;-54
2021/12/28 04:58:47;;;;;;;5.20;2.67;;;;;;;7.24;86.42;97650.78;5076209;28;20399;-55
2021/12/28 05:01:18;;;;;;;11.35;3.35;;;;;;;7.23;86.48;97647.38;5075959;28;20064;-55
2021/12/28 05:03:46;;;;;;;4.78;2.65;;;;;;;7.24;86.29;97643.91;5074618;28;20068;-55
2021/12/28 05:06:17;;;;;;;8.60;2.70;;;;;;;7.24;86.52;97649.06;5075865;28;20044;-54
2021/12/28 05:08:46;;;;;;;9.55;3.40;;;;;;;7.23;86.67;97639.66;5074826;28;20056;-55
2021/12/28 05:11:14;;;;;;;7.75;2.38;;;;;;;7.25;86.50;97639.63;5076115;28;20124;-55
2021/12/28 05:13:45;;;;;;;13.45;2.63;;;;;;;7.24;86.35;97645.63;5074407;28;20036;-55
2021/12/28 05:16:15;;;;;;;6.50;2.30;;;;;;;7.23;86.17;97644.78;5074313;28;20385;-55
2021/12/28 05:18:44;;;;;;;5.10;2.42;;;;;;;7.23;86.61;97644.78;5076226;28;20025;-55
2021/12/28 05:21:12;;;;;;;3.33;2.13;;;;;;;7.23;86.72;97649.94;5074520;28;20127;-55
2021/12/28 05:23:43;;;;;;;7.90;2.42;;;;;;;7.24;86.58;97643.91;5075898;28;20116;-55
2021/12/28 05:26:08;;;;;;;5.15;2.25;;;;;;;7.26;86.25;97657.63;5074893;28;20063;-54
2021/12/28 05:28:42;;;;;;;4.20;1.80;;;;;;;7.25;86.62;97663.66;5074420;28;20495;-55
2021/12/28 05:31:08;;;;;;;7.43;2.60;;;;;;;7.26;86.54;97669.66;5074295;28;20492;-54
2021/12/28 05:33:41;;;;;;;3.75;2.53;;;;;;;7.25;86.45;97663.66;5075316;28;20036;-55
2021/12/28 05:36:10;;;;;;;5.32;2.30;;;;;;;7.25;86.23;97668.78;5057798;28;20064;-55
2021/12/28 05:38:41;;;;;;;4.80;2.60;;;;;;;7.27;86.40;97659.34;5074307;28;20036;-55
2021/12/28 05:41:14;;;;;;;8.00;2.75;;;;;;;7.28;86.55;97661.03;5057513;28;20127;-55
2021/12/28 05:43:42;;;;;;;5.90;2.22;;;;;;;7.27;86.38;97661.91;5057456;28;20047;-54
2021/12/28 05:46:13;;;;;;;4.55;2.10;;;;;;;7.27;86.51;97651.59;5058055;28;20033;-55
2021/12/28 05:48:50;;;;;;;4.82;2.22;;;;;;;7.27;86.54;97661.91;5075371;28;20068;-54
2021/12/28 05:51:16;;;;;;;3.53;2.67;;;;;;;7.26;86.35;97652.47;5075343;28;20040;-55
2021/12/28 05:53:46;;;;;;;7.50;2.22;;;;;;;7.28;86.45;97649.91;5074686;28;20043;-55
2021/12/28 05:56:12;;;;;;;3.90;2.22;;;;;;;7.26;86.08;97637.00;5074029;28;20036;-55
2021/12/28 05:58:37;;;;;;;4.95;2.05;;;;;;;7.27;86.56;97636.16;5073974;28;20043;-55
2021/12/28 06:01:11;;;;;;;5.03;2.10;;;;;;;7.25;86.27;97627.56;5075001;28;20395;-55
2021/12/28 06:03:36;;;;;;;5.47;2.92;;;;;;;7.25;86.18;97626.72;5075114;28;20139;-54
2021/12/28 06:06:11;;;;;;;4.93;2.30;;;;;;;7.26;86.40;97629.28;5056808;28;20040;-54
2021/12/28 06:08:41;;;;;;;6.47;1.90;;;;;;;7.24;86.21;97641.31;5056995;28;20075;-55
2021/12/28 06:11:16;;;;;;;4.05;2.35;;;;;;;7.25;86.30;97644.78;5074709;28;20064;-54
2021/12/28 06:13:48;;;;;;;3.70;2.42;;;;;;;7.25;86.00;97647.34;5057335;28;20119;-55
2021/12/28 06:16:17;;;;;;;4.03;2.20;;;;;;;7.26;86.35;97646.47;5073852;28;20044;-54
2021/12/28 06:18:45;;;;;;;3.35;1.90;;;;;;;7.25;86.27;97645.59;5056847;28;20093;-55
2021/12/28 06:21:19;;;;;;;3.70;2.33;;;;;;;7.26;86.37;97638.75;5074360;28;20033;-55
2021/12/28 06:23:50;;;;;;;3.42;2.15;;;;;;;7.25;86.33;97637.88;5056850;28;20032;-55
2021/12/28 06:26:24;;;;;;;2.65;1.83;;;;;;;7.24;86.35;97628.44;5074861;28;20064;-54
2021/12/28 06:28:55;;;;;;;5.93;2.13;;;;;;;7.26;86.44;97631.03;5073671;28;20040;-54
2021/12/28 06:31:28;;;;;;;7.45;3.03;;;;;;;7.26;86.39;97633.59;5074425;28;20036;-55
2021/12/28 06:34:03;;;;;;;4.15;2.72;;;;;;;7.27;86.05;97636.16;5073616;28;20082;-55
2021/12/28 06:36:34;;;;;;;5.88;2.67;;;;;;;7.25;86.42;97630.16;5074617;28;20133;-55
2021/12/28 06:39:09;;;;;;;3.63;2.40;;;;;;;7.26;86.20;97638.75;5056530;28;20040;-55
2021/12/28 06:41:42;;;;;;;4.70;2.33;;;;;;;7.26;86.35;97647.31;5074391;28;20036;-55
2021/12/28 06:44:13;;;;;;;4.45;2.20;;;;;;;7.28;86.58;97643.00;5056477;28;20404;-55
2021/12/28 06:46:47;;;;;;;14.45;2.47;;;;;;;7.29;86.50;97643.88;5073105;28;20033;-55
2021/12/28 06:49:18;;;;;;;4.68;2.85;;;;;;;7.29;86.30;97649.03;5073409;28;20035;-54
2021/12/28 06:51:54;;;;;;;2.97;1.90;;;;;;;7.29;86.61;97646.47;5073726;28;20044;-55
2021/12/28 06:54:26;;;;;;;2.72;1.77;;;;;;;7.29;86.26;97649.88;5074191;28;20455;-55
2021/12/28 06:56:58;;;;;;;4.40;2.28;;;;;;;7.29;86.38;97649.88;5074182;28;20032;-55
2021/12/28 06:59:26;;;;;;;4.93;2.20;;;;;;;7.31;86.61;97652.47;5056484;28;20039;-55
2021/12/28 07:01:52;;;;;;;5.35;2.22;;;;;;;7.30;86.66;97649.00;5073734;28;20050;-55
2021/12/28 07:04:20;;;;;;;6.75;2.67;;;;;;;7.30;86.20;97646.44;5073577;28;20040;-55
2021/12/28 07:06:53;;;;;;;4.53;2.38;;;;;;;7.31;86.54;97637.00;5071884;28;20044;-55
2021/12/28 07:09:19;;;;;;;4.57;2.45;;;;;;;7.30;86.60;97641.28;5055667;28;20043;-55
2021/12/28 07:11:50;;;;;;;3.42;2.22;;;;;;;7.31;86.44;97657.59;5074092;28;20040;-55
2021/12/28 07:14:20;;;;;;;2.30;1.92;;;;;;;7.30;86.51;97667.03;5056085;28;20048;-55
2021/12/28 07:16:51;;;;;;;4.15;2.30;;;;;;;7.32;86.38;97664.44;5074073;28;20044;-55
2021/12/28 07:19:19;;;;;;;2.95;1.77;;;;;;;7.31;86.38;97655.88;5073689;28;20357;-54
2021/12/28 07:21:50;;;;;;;3.83;2.33;;;;;;;7.31;86.54;97653.28;5072385;28;20040;-55
2021/12/28 07:24:16;;;;;;;2.30;2.10;;;;;;;7.32;86.52;97656.72;5056440;28;20036;-55
2021/12/28 07:26:45;;;;;;;2.90;2.05;;;;;;;7.34;86.27;97667.03;5073292;28;20036;-55
2021/12/28 07:29:13;;;;;;;3.55;2.03;;;;;;;7.35;86.58;97653.28;5055334;28;20037;-55
2021/12/28 07:31:42;;;;;;;2.50;1.85;;;;;;;7.34;86.54;97662.72;5055644;28;20035;-55
2021/12/28 07:34:10;;;;;;;2.72;2.38;;;;;;;7.36;86.37;97665.28;5073337;28;20066;-55
2021/12/28 07:36:45;;;;;;;2.20;2.00;;;;;;;7.35;86.62;97658.44;5073394;28;20049;-54
2021/12/28 07:39:16;;;;;;;5.38;1.75;;;;;;;7.36;86.27;97676.44;5072672;28;20040;-55
2021/12/28 07:41:50;;;;;;;2.65;2.42;;;;;;;7.35;86.68;97674.72;5072216;28;20472;-55
2021/12/28 07:44:16;;;;;;;3.13;2.28;;;;;;;7.35;86.51;97674.72;5055514;28;20036;-55
2021/12/28 07:46:49;;;;;;;6.43;2.90;;;;;;;7.37;86.27;97672.16;5072225;28;20040;-55
2021/12/28 07:49:21;;;;;;;6.57;2.00;;;;;;;7.37;86.24;97665.25;5072193;28;20127;-55
2021/12/28 07:51:49;;;;;;;2.88;2.05;;;;;;;7.38;86.40;97671.28;5073418;28;20118;-55
2021/12/28 07:54:14;;;;;;;2.88;2.25;;;;;;;7.39;86.47;97679.00;5055655;28;20042;-55
2021/12/28 07:56:42;;;;;;;6.68;2.05;;;;;;;7.37;86.32;97662.69;5073294;28;20036;-55
2021/12/28 07:59:13;;;;;;;2.28;2.08;;;;;;;7.38;86.48;97661.81;5073109;28;20033;-55
2021/12/28 08:01:42;;;;;;;2.45;1.60;;;;;;;7.39;86.38;97673.00;5054675;28;20491;-54
2021/12/28 08:04:16;;;;;;;3.80;1.98;;;;;;;7.39;86.86;97673.00;5055670;28;20025;-55
2021/12/28 08:06:53;;;;;;;2.60;2.08;;;;;;;7.40;86.50;97669.53;5073343;28;20040;-55
2021/12/28 08:09:24;;;;;;;1.95;1.85;;;;;;;7.39;86.62;97675.56;5073408;28;20403;-55
2021/12/28 08:11:57;;;;;;;2.33;1.85;;;;;;;7.39;86.79;97673.00;5071947;28;20040;-55
2021/12/28 08:14:28;;;;;;;2.17;1.98;;;;;;;7.40;86.77;97675.56;5055464;28;20032;-54
2021/12/28 08:16:57;;;;;;;1.88;1.73;;;;;;;7.42;86.37;97665.22;5056147;28;20502;-55
2021/12/28 08:19:28;;;;;;;2.72;1.85;;;;;;;7.42;86.52;97666.09;5075518;28;20129;-55
2021/12/28 08:21:59;;;;;;;3.70;2.33;;;;;;;7.43;86.44;97669.50;5075561;28;20059;-55
2021/12/28 08:24:25;;;;;;;2.72;1.98;;;;;;;7.45;86.64;97665.19;5077074;28;20601;-55
2021/12/28 08:26:59;;;;;;;3.85;1.90;;;;;;;7.44;86.52;97666.06;5076961;28;20069;-55
2021/12/28 08:29:32;;;;;;;2.05;1.77;;;;;;;7.45;86.48;97671.22;5077178;28;20033;-55
2021/12/28 08:32:02;;;;;;;3.58;1.90;;;;;;;7.47;86.59;97676.34;5076791;28;20043;-55
2021/12/28 08:34:34;;;;;;;4.15;1.90;;;;;;;7.44;86.63;97672.09;5058673;28;20039;-55
2021/12/28 08:37:00;;;;;;;3.10;1.60;;;;;;;7.44;86.37;97672.09;5058571;28;20116;-54
2021/12/28 08:39:30;;;;;;;3.45;2.65;;;;;;;7.46;86.51;97672.06;5076919;28;20120;-55
2021/12/28 08:41:55;;;;;;;3.50;2.50;;;;;;;7.47;86.57;97673.78;5076709;28;20127;-55
2021/12/28 08:44:21;;;;;;;2.17;1.90;;;;;;;7.46;86.63;97672.06;5076665;28;20060;-55
2021/12/28 08:46:47;;;;;;;5.13;2.10;;;;;;;7.46;86.36;97674.63;5075381;28;20068;-55
2021/12/28 08:49:12;;;;;;;1.88;1.60;;;;;;;7.47;86.63;97676.34;5076529;28;20079;-55
2021/12/28 08:51:39;;;;;;;2.90;2.40;;;;;;;7.48;86.36;97667.75;5074882;28;20036;-55
2021/12/28 08:54:09;;;;;;;2.47;2.28;;;;;;;7.48;86.66;97678.06;5076441;28;20041;-55
2021/12/28 08:56:35;;;;;;;2.53;2.33;;;;;;;7.51;86.48;97682.31;5075207;28;20430;-55
2021/12/28 08:59:01;;;;;;;5.00;3.05;;;;;;;7.50;86.54;97681.47;5076346;28;20040;-55
2021/12/28 09:01:26;;;;;;;7.53;2.78;;;;;;;7.50;86.92;97678.91;5076210;28;20032;-55
2021/12/28 09:03:52;;;;;;;5.25;2.30;;;;;;;7.51;86.82;97685.75;5076231;28;20036;-55
2021/12/28 09:06:19;;;;;;;3.20;2.90;;;;;;;7.52;86.62;97671.13;5075919;28;20032;-55
2021/12/28 09:08:47;;;;;;;4.05;2.60;;;;;;;7.53;86.44;97667.69;5075212;28;20086;-55
2021/12/28 09:11:13;;;;;;;4.50;3.08;;;;;;;7.53;86.86;97666.00;5075811;28;20037;-55
2021/12/28 09:13:39;;;;;;;3.83;2.63;;;;;;;7.55;86.69;97660.81;5057985;28;20076;-55
2021/12/28 09:16:05;;;;;;;3.50;2.83;;;;;;;7.55;86.33;97659.06;5075852;28;20068;-55
2021/12/28 09:18:30;;;;;;;5.25;2.42;;;;;;;7.56;86.47;97659.94;5076047;28;20369;-55
2021/12/28 09:20:58;;;;;;;5.10;2.97;;;;;;;7.57;86.65;97659.91;5074392;28;20120;-55
2021/12/28 09:23:24;;;;;;;3.08;2.20;;;;;;;7.58;86.47;97663.38;5076117;28;20484;-55
2021/12/28 09:25:52;;;;;;;3.67;2.67;;;;;;;7.59;86.76;97670.22;5057765;28;20062;-55
2021/12/28 09:28:20;;;;;;;2.67;2.42;;;;;;;7.59;86.48;97665.91;5057535;28;20033;-55
2021/12/28 09:30:46;;;;;;;3.72;2.38;;;;;;;7.59;86.58;97658.19;5074443;28;20063;-54
2021/12/28 09:33:12;;;;;;;4.55;2.47;;;;;;;7.60;86.57;97661.63;5075241;28;20488;-55
2021/12/28 09:35:38;;;;;;;6.85;3.13;;;;;;;7.61;86.64;97653.88;5074298;28;20051;-55
2021/12/28 09:38:04;;;;;;;4.18;2.35;;;;;;;7.62;86.63;97654.72;5057595;28;20436;-55
2021/12/28 09:40:34;;;;;;;2.95;2.10;;;;;;;7.62;86.73;97647.84;5057469;28;20043;-55
2021/12/28 09:42:59;;;;;;;2.65;2.03;;;;;;;7.64;86.75;97662.44;5057434;28;20036;-55
2021/12/28 09:45:27;;;;;;;6.00;2.50;;;;;;;7.64;86.70;97641.81;5075390;28;20124;-55
2021/12/28 09:47:53;;;;;;;5.13;2.10;;;;;;;7.65;86.16;97646.94;5074277;28;20029;-55
2021/12/28 09:50:19;;;;;;;3.05;2.60;;;;;;;7.64;86.67;97640.06;5075306;28;20381;-55
2021/12/28 09:52:47;;;;;;;5.15;2.78;;;;;;;7.66;86.81;97640.06;5075455;28;20400;-55
2021/12/28 09:55:15;;;;;;;3.63;2.33;;;;;;;7.68;86.96;97631.44;5057323;28;20040;-55
2021/12/28 09:57:47;;;;;;;3.42;2.58;;;;;;;7.70;86.74;97634.88;5075472;28;20516;-55
2021/12/28 10:00:15;;;;;;;3.45;2.35;;;;;;;7.70;86.76;97634.88;5075132;28;20036;-55
2021/12/28 10:02:43;;;;;;;3.08;2.20;;;;;;;7.70;86.92;97619.41;5073657;28;20072;-55
2021/12/28 10:05:15;;;;;;;2.55;2.28;;;;;;;7.70;86.76;97616.81;5073723;28;20055;-55
2021/12/28 10:07:46;;;;;;;2.33;1.98;;;;;;;7.72;86.71;97624.53;5075281;28;20040;-54
2021/12/28 10:10:12;;;;;;;2.67;2.20;;;;;;;7.72;86.80;97611.63;5073566;28;20532;-55
2021/12/28 10:12:44;;;;;;;3.55;2.40;;;;;;;7.74;86.87;97615.06;5074931;28;20036;-55
2021/12/28 10:15:16;;;;;;;2.60;2.28;;;;;;;7.74;86.47;97621.06;5056926;28;20494;-55
2021/12/28 10:17:49;;;;;;;2.25;1.90;;;;;;;7.74;86.52;97617.63;5057257;28;20041;-55
2021/12/28 10:20:19;;;;;;;4.70;2.53;;;;;;;7.75;86.76;97614.19;5057116;28;20024;-55
2021/12/28 10:22:53;;;;;;;2.30;2.10;;;;;;;7.75;86.87;97620.22;5056853;28;20182;-55
2021/12/28 10:25:27;;;;;;;2.40;2.20;;;;;;;7.77;86.73;97615.03;5073731;28;20032;-55
2021/12/28 10:27:58;;;;;;;2.88;2.35;;;;;;;7.76;86.62;97609.03;5074396;28;20033;-55
2021/12/28 10:30:31;;;;;;;2.50;2.13;;;;;;;7.78;86.83;97599.53;5057162;28;20028;-55
2021/12/28 10:33:09;;;;;;;2.55;2.35;;;;;;;7.79;86.79;97595.22;5074869;28;20119;-55
2021/12/28 10:35:40;;;;;;;3.97;2.63;;;;;;;7.80;86.69;97596.94;5056930;28;20028;-55
2021/12/28 10:38:09;;;;;;;2.92;2.13;;;;;;;7.81;87.08;97590.03;5074054;28;20063;-55
2021/12/28 10:40:38;;;;;;;2.47;2.15;;;;;;;7.82;86.85;97590.03;5055207;28;20508;-55
2021/12/28 10:43:12;;;;;;;2.55;2.17;;;;;;;7.82;86.93;97584.00;5074330;28;20060;-55
2021/12/28 10:45:54;;;;;;;3.65;2.25;;;;;;;7.82;86.84;97589.19;5074440;28;20118;-55
2021/12/28 10:48:27;;;;;;;2.45;2.25;;;;;;;7.84;86.65;97575.41;5074216;28;20067;-55
2021/12/28 10:51:03;;;;;;;4.07;2.60;;;;;;;7.85;86.81;97582.28;5074222;28;20115;-55
2021/12/28 10:53:44;;;;;;;3.15;1.90;;;;;;;7.86;86.72;97581.38;5074660;28;20546;-55
2021/12/28 10:56:12;;;;;;;2.17;1.90;;;;;;;7.87;86.93;97577.94;5074174;28;20033;-55
2021/12/28 10:58:41;;;;;;;2.28;1.90;;;;;;;7.88;86.88;97576.22;5056024;28;20055;-55
2021/12/28 11:01:09;;;;;;;2.75;2.15;;;;;;;7.89;86.80;97576.19;5055790;28;20056;-54
2021/12/28 11:03:36;;;;;;;2.10;2.00;;;;;;;7.90;87.09;97587.38;5056029;28;20041;-55
2021/12/28 11:06:19;;;;;;;2.80;1.90;;;;;;;7.91;86.95;97589.91;5056367;28;20028;-55
2021/12/28 11:08:55;;;;;;;4.63;2.00;;;;;;;7.91;86.90;97582.19;5056103;28;20411;-55
2021/12/28 11:11:24;;;;;;;2.65;2.45;;;;;;;7.93;86.83;97588.19;5056162;28;20040;-55
2021/12/28 11:13:54;;;;;;;1.75;1.65;;;;;;;7.95;86.93;97600.19;5072358;28;20036;-55
2021/12/28 11:16:25;;;;;;;2.30;2.10;;;;;;;7.95;86.76;97644.06;5072415;28;20033;-55
2021/12/28 11:18:56;;;;;;;3.03;2.75;;;;;;;7.92;86.69;97635.47;5072536;28;20044;-55
2021/12/28 11:21:33;;;;;;;6.30;2.20;;;;;;;7.91;86.86;97641.50;5055912;28;20423;-55
2021/12/28 11:24:03;;;;;;;8.63;2.70;;;;;;;7.90;86.62;97626.06;5055725;28;20037;-55
2021/12/28 11:26:40;;;;;;;14.07;3.30;;;;;;;7.89;86.76;97632.09;5073347;28;20044;-55
2021/12/28 11:29:11;;;;;;;14.90;3.53;;;;;;;7.86;86.54;97622.63;5072680;28;20135;-55
2021/12/28 11:31:43;;;;;;;12.55;3.65;;;;;;;7.86;86.80;97619.22;5072308;28;20043;-55
2021/12/28 11:34:20;;;;;;;17.02;5.03;;;;;;;7.83;86.72;97622.69;5055799;28;20404;-54
2021/12/28 11:36:52;;;;;;;23.67;5.32;;;;;;;7.83;86.67;97622.69;5055316;28;20024;-55
2021/12/28 11:39:22;;;;;;;20.88;5.57;;;;;;;7.81;86.90;97624.44;5073013;28;20045;-55
2021/12/28 11:41:49;;;;;;;14.77;3.75;;;;;;;7.80;86.80;97620.16;5055320;28;20109;-54
2021/12/28 11:44:17;;;;;;;20.88;5.15;;;;;;;7.79;86.50;97621.03;5055482;28;20040;-55
2021/12/28 11:46:43;;;;;;;16.48;4.95;;;;;;;7.77;86.89;97617.59;5055274;28;20116;-55
2021/12/28 11:49:11;;;;;;;22.42;5.47;;;;;;;7.77;86.48;97631.38;5072932;28;20162;-55
2021/12/28 11:51:37;;;;;;;28.25;5.72;;;;;;;7.77;86.70;97625.34;5072809;28;20060;-55
2021/12/28 11:54:09;;;;;;;27.67;5.72;;;;;;;7.76;86.58;97615.88;5073147;28;20537;-55
2021/12/28 11:56:41;;;;;;;33.22;6.90;;;;;;;7.76;86.92;97618.47;5072113;28;20036;-55